sensor_id;sensor_type;location;lat;lon;timestamp;P1;durP1;ratioP1;P2;durP2;ratioP2
67227;SDS011;54139;42.616;23.748;2023-04-09T00:02:08;17.20;;;14.95;;
67227;SDS011;54139;42.616;23.748;2023-04-09T00:04:33;20.00;;;18.08;;
67227;SDS011;54139;42.616;23.748;2023-04-09T00:06:58;18.50;;;16.73;;
67227;SDS011;54139;42.616;23.748;2023-04-09T00:09:24;15.38;;;13.88;;
67227;SDS011;54139;42.616;23.748;2023-04-09T00:11:49;15.82;;;14.32;;
67227;SDS011;54139;42.616;23.748;2023-04-09T00:14:15;19.80;;;17.73;;
67227;SDS011;54139;42.616;23.748;2023-04-09T00:16:40;17.58;;;15.73;;
67227;SDS011;54139;42.616;23.748;2023-04-09T00:19:05;16.95;;;15.45;;
67227;SDS011;54139;42.616;23.748;2023-04-09T00:21:31;17.88;;;16.08;;
67227;SDS011;54139;42.616;23.748;2023-04-09T00:23:56;17.52;;;15.73;;
67227;SDS011;54139;42.616;23.748;2023-04-09T00:26:22;17.98;;;16.17;;
67227;SDS011;54139;42.616;23.748;2023-04-09T00:28:47;17.87;;;15.97;;
67227;SDS011;54139;42.616;23.748;2023-04-09T00:31:12;24.27;;;21.88;;
67227;SDS011;54139;42.616;23.748;2023-04-09T00:33:37;51.30;;;37.23;;
67227;SDS011;54139;42.616;23.748;2023-04-09T00:36:03;44.83;;;35.87;;
67227;SDS011;54139;42.616;23.748;2023-04-09T00:38:28;28.73;;;24.80;;
67227;SDS011;54139;42.616;23.748;2023-04-09T00:40:53;20.33;;;18.20;;
67227;SDS011;54139;42.616;23.748;2023-04-09T00:43:19;18.73;;;16.92;;
67227;SDS011;54139;42.616;23.748;2023-04-09T00:45:44;18.05;;;16.35;;
67227;SDS011;54139;42.616;23.748;2023-04-09T00:48:10;19.60;;;16.52;;
67227;SDS011;54139;42.616;23.748;2023-04-09T00:50:36;20.23;;;18.13;;
67227;SDS011;54139;42.616;23.748;2023-04-09T00:53:01;19.73;;;17.90;;
67227;SDS011;54139;42.616;23.748;2023-04-09T00:55:26;21.35;;;19.10;;
67227;SDS011;54139;42.616;23.748;2023-04-09T00:57:52;20.60;;;18.27;;
67227;SDS011;54139;42.616;23.748;2023-04-09T01:00:17;24.02;;;21.50;;
67227;SDS011;54139;42.616;23.748;2023-04-09T01:02:42;24.23;;;21.65;;
67227;SDS011;54139;42.616;23.748;2023-04-09T01:05:08;23.55;;;20.92;;
67227;SDS011;54139;42.616;23.748;2023-04-09T01:10:25;21.33;;;19.10;;
67227;SDS011;54139;42.616;23.748;2023-04-09T01:15:19;21.95;;;19.75;;
67227;SDS011;54139;42.616;23.748;2023-04-09T01:17:50;21.45;;;19.20;;
67227;SDS011;54139;42.616;23.748;2023-04-09T01:28:13;24.48;;;21.48;;
67227;SDS011;54139;42.616;23.748;2023-04-09T01:30:40;21.25;;;19.02;;
67227;SDS011;54139;42.616;23.748;2023-04-09T01:33:07;20.40;;;18.17;;
67227;SDS011;54139;42.616;23.748;2023-04-09T01:35:33;22.48;;;20.05;;
67227;SDS011;54139;42.616;23.748;2023-04-09T01:37:58;20.60;;;18.48;;
67227;SDS011;54139;42.616;23.748;2023-04-09T01:40:24;21.13;;;19.08;;
67227;SDS011;54139;42.616;23.748;2023-04-09T01:42:49;17.55;;;15.85;;
67227;SDS011;54139;42.616;23.748;2023-04-09T01:45:15;20.77;;;18.73;;
67227;SDS011;54139;42.616;23.748;2023-04-09T01:47:41;20.90;;;17.23;;
67227;SDS011;54139;42.616;23.748;2023-04-09T01:50:07;18.88;;;16.90;;
67227;SDS011;54139;42.616;23.748;2023-04-09T01:52:32;18.40;;;16.60;;
67227;SDS011;54139;42.616;23.748;2023-04-09T01:54:57;18.15;;;16.45;;
67227;SDS011;54139;42.616;23.748;2023-04-09T01:57:23;18.73;;;16.92;;
67227;SDS011;54139;42.616;23.748;2023-04-09T01:59:48;19.63;;;17.73;;
67227;SDS011;54139;42.616;23.748;2023-04-09T02:02:17;20.35;;;18.20;;
67227;SDS011;54139;42.616;23.748;2023-04-09T02:04:45;20.30;;;18.02;;
67227;SDS011;54139;42.616;23.748;2023-04-09T02:09:38;21.33;;;19.13;;
67227;SDS011;54139;42.616;23.748;2023-04-09T02:12:04;21.05;;;18.95;;
67227;SDS011;54139;42.616;23.748;2023-04-09T02:14:33;22.85;;;20.63;;
67227;SDS011;54139;42.616;23.748;2023-04-09T02:16:59;25.10;;;22.60;;
67227;SDS011;54139;42.616;23.748;2023-04-09T02:19:28;22.92;;;20.60;;
67227;SDS011;54139;42.616;23.748;2023-04-09T02:22:03;21.73;;;19.55;;
67227;SDS011;54139;42.616;23.748;2023-04-09T02:24:28;21.17;;;18.95;;
67227;SDS011;54139;42.616;23.748;2023-04-09T02:26:53;20.13;;;17.80;;
67227;SDS011;54139;42.616;23.748;2023-04-09T02:29:18;26.30;;;23.60;;
67227;SDS011;54139;42.616;23.748;2023-04-09T02:31:44;27.02;;;24.23;;
67227;SDS011;54139;42.616;23.748;2023-04-09T02:34:09;27.13;;;20.33;;
67227;SDS011;54139;42.616;23.748;2023-04-09T02:36:34;26.35;;;23.52;;
67227;SDS011;54139;42.616;23.748;2023-04-09T02:39:01;23.45;;;20.23;;
67227;SDS011;54139;42.616;23.748;2023-04-09T02:41:26;22.42;;;20.13;;
67227;SDS011;54139;42.616;23.748;2023-04-09T02:43:51;26.10;;;20.50;;
67227;SDS011;54139;42.616;23.748;2023-04-09T02:46:17;27.05;;;24.25;;
67227;SDS011;54139;42.616;23.748;2023-04-09T02:48:42;26.92;;;23.20;;
67227;SDS011;54139;42.616;23.748;2023-04-09T02:51:07;28.65;;;25.55;;
67227;SDS011;54139;42.616;23.748;2023-04-09T02:53:33;33.63;;;27.17;;
67227;SDS011;54139;42.616;23.748;2023-04-09T02:55:58;32.00;;;26.25;;
67227;SDS011;54139;42.616;23.748;2023-04-09T02:58:23;33.60;;;25.40;;
67227;SDS011;54139;42.616;23.748;2023-04-09T03:00:48;28.67;;;25.13;;
67227;SDS011;54139;42.616;23.748;2023-04-09T03:03:14;27.40;;;24.02;;
67227;SDS011;54139;42.616;23.748;2023-04-09T03:05:39;27.77;;;24.35;;
67227;SDS011;54139;42.616;23.748;2023-04-09T03:08:05;22.67;;;20.33;;
67227;SDS011;54139;42.616;23.748;2023-04-09T03:10:30;26.60;;;22.35;;
67227;SDS011;54139;42.616;23.748;2023-04-09T03:12:55;23.30;;;20.90;;
67227;SDS011;54139;42.616;23.748;2023-04-09T03:15:20;25.23;;;22.50;;
67227;SDS011;54139;42.616;23.748;2023-04-09T03:17:46;25.48;;;22.80;;
67227;SDS011;54139;42.616;23.748;2023-04-09T03:20:11;23.60;;;21.10;;
67227;SDS011;54139;42.616;23.748;2023-04-09T03:22:37;24.85;;;22.25;;
67227;SDS011;54139;42.616;23.748;2023-04-09T03:25:02;24.60;;;21.98;;
67227;SDS011;54139;42.616;23.748;2023-04-09T03:27:28;24.23;;;21.27;;
67227;SDS011;54139;42.616;23.748;2023-04-09T03:29:56;25.67;;;22.92;;
67227;SDS011;54139;42.616;23.748;2023-04-09T03:32:21;21.95;;;19.63;;
67227;SDS011;54139;42.616;23.748;2023-04-09T03:34:46;17.70;;;15.80;;
67227;SDS011;54139;42.616;23.748;2023-04-09T03:37:12;20.60;;;17.77;;
67227;SDS011;54139;42.616;23.748;2023-04-09T03:39:37;21.55;;;19.25;;
67227;SDS011;54139;42.616;23.748;2023-04-09T03:42:03;21.88;;;18.55;;
67227;SDS011;54139;42.616;23.748;2023-04-09T03:47:04;21.98;;;16.48;;
67227;SDS011;54139;42.616;23.748;2023-04-09T03:49:30;20.00;;;15.77;;
67227;SDS011;54139;42.616;23.748;2023-04-09T03:51:55;19.65;;;15.80;;
67227;SDS011;54139;42.616;23.748;2023-04-09T03:54:20;21.27;;;17.10;;
67227;SDS011;54139;42.616;23.748;2023-04-09T03:56:46;20.70;;;16.88;;
67227;SDS011;54139;42.616;23.748;2023-04-09T03:59:11;20.65;;;17.50;;
67227;SDS011;54139;42.616;23.748;2023-04-09T04:01:36;26.65;;;18.17;;
67227;SDS011;54139;42.616;23.748;2023-04-09T04:04:02;19.60;;;14.95;;
67227;SDS011;54139;42.616;23.748;2023-04-09T04:06:27;19.30;;;16.15;;
67227;SDS011;54139;42.616;23.748;2023-04-09T04:08:52;19.83;;;17.15;;
67227;SDS011;54139;42.616;23.748;2023-04-09T04:11:18;18.25;;;14.65;;
67227;SDS011;54139;42.616;23.748;2023-04-09T04:13:43;22.20;;;18.55;;
67227;SDS011;54139;42.616;23.748;2023-04-09T04:16:08;21.05;;;17.00;;
67227;SDS011;54139;42.616;23.748;2023-04-09T04:18:34;18.73;;;16.73;;
67227;SDS011;54139;42.616;23.748;2023-04-09T04:20:59;18.65;;;15.68;;
67227;SDS011;54139;42.616;23.748;2023-04-09T04:23:25;21.00;;;18.23;;
67227;SDS011;54139;42.616;23.748;2023-04-09T04:25:50;20.92;;;17.80;;
67227;SDS011;54139;42.616;23.748;2023-04-09T04:28:17;20.58;;;18.25;;
67227;SDS011;54139;42.616;23.748;2023-04-09T04:30:42;18.23;;;15.95;;
67227;SDS011;54139;42.616;23.748;2023-04-09T04:33:08;20.67;;;18.48;;
67227;SDS011;54139;42.616;23.748;2023-04-09T04:35:33;19.65;;;16.75;;
67227;SDS011;54139;42.616;23.748;2023-04-09T04:37:58;17.88;;;16.02;;
67227;SDS011;54139;42.616;23.748;2023-04-09T04:40:23;20.75;;;14.98;;
67227;SDS011;54139;42.616;23.748;2023-04-09T04:42:49;19.20;;;17.13;;
67227;SDS011;54139;42.616;23.748;2023-04-09T04:45:14;16.20;;;14.60;;
67227;SDS011;54139;42.616;23.748;2023-04-09T04:47:39;16.73;;;15.02;;
67227;SDS011;54139;42.616;23.748;2023-04-09T04:50:05;16.15;;;14.25;;
67227;SDS011;54139;42.616;23.748;2023-04-09T04:52:31;13.82;;;12.43;;
67227;SDS011;54139;42.616;23.748;2023-04-09T04:54:56;13.65;;;12.20;;
67227;SDS011;54139;42.616;23.748;2023-04-09T04:57:21;18.48;;;16.23;;
67227;SDS011;54139;42.616;23.748;2023-04-09T04:59:47;19.95;;;17.85;;
67227;SDS011;54139;42.616;23.748;2023-04-09T05:02:12;19.13;;;17.13;;
67227;SDS011;54139;42.616;23.748;2023-04-09T05:04:37;18.63;;;16.77;;
67227;SDS011;54139;42.616;23.748;2023-04-09T05:07:02;19.92;;;17.92;;
67227;SDS011;54139;42.616;23.748;2023-04-09T05:09:28;17.88;;;16.17;;
67227;SDS011;54139;42.616;23.748;2023-04-09T05:11:53;18.10;;;16.33;;
67227;SDS011;54139;42.616;23.748;2023-04-09T05:14:18;19.70;;;17.58;;
67227;SDS011;54139;42.616;23.748;2023-04-09T05:16:45;18.77;;;16.85;;
67227;SDS011;54139;42.616;23.748;2023-04-09T05:19:10;17.83;;;16.05;;
67227;SDS011;54139;42.616;23.748;2023-04-09T05:21:36;19.05;;;17.15;;
67227;SDS011;54139;42.616;23.748;2023-04-09T05:24:01;19.58;;;16.45;;
67227;SDS011;54139;42.616;23.748;2023-04-09T05:26:26;17.55;;;15.73;;
67227;SDS011;54139;42.616;23.748;2023-04-09T05:28:52;16.98;;;15.32;;
67227;SDS011;54139;42.616;23.748;2023-04-09T05:31:18;17.25;;;14.73;;
67227;SDS011;54139;42.616;23.748;2023-04-09T05:33:43;16.85;;;15.15;;
67227;SDS011;54139;42.616;23.748;2023-04-09T05:36:13;18.05;;;16.25;;
67227;SDS011;54139;42.616;23.748;2023-04-09T05:38:38;14.18;;;12.50;;
67227;SDS011;54139;42.616;23.748;2023-04-09T05:41:03;16.58;;;13.93;;
67227;SDS011;54139;42.616;23.748;2023-04-09T05:43:29;18.75;;;16.85;;
67227;SDS011;54139;42.616;23.748;2023-04-09T05:45:54;19.52;;;17.40;;
67227;SDS011;54139;42.616;23.748;2023-04-09T05:48:20;21.08;;;17.75;;
67227;SDS011;54139;42.616;23.748;2023-04-09T05:50:49;18.42;;;16.20;;
67227;SDS011;54139;42.616;23.748;2023-04-09T05:53:16;19.13;;;17.17;;
67227;SDS011;54139;42.616;23.748;2023-04-09T05:55:41;17.25;;;15.45;;
67227;SDS011;54139;42.616;23.748;2023-04-09T05:58:07;17.05;;;15.35;;
67227;SDS011;54139;42.616;23.748;2023-04-09T06:00:32;18.10;;;16.35;;
67227;SDS011;54139;42.616;23.748;2023-04-09T06:02:57;18.27;;;15.45;;
67227;SDS011;54139;42.616;23.748;2023-04-09T06:05:22;18.30;;;16.10;;
67227;SDS011;54139;42.616;23.748;2023-04-09T06:07:48;20.25;;;18.17;;
67227;SDS011;54139;42.616;23.748;2023-04-09T06:10:13;19.35;;;17.25;;
67227;SDS011;54139;42.616;23.748;2023-04-09T06:12:38;18.08;;;16.38;;
67227;SDS011;54139;42.616;23.748;2023-04-09T06:15:05;17.65;;;15.70;;
67227;SDS011;54139;42.616;23.748;2023-04-09T06:17:30;19.08;;;16.73;;
67227;SDS011;54139;42.616;23.748;2023-04-09T06:19:56;21.48;;;19.05;;
67227;SDS011;54139;42.616;23.748;2023-04-09T06:22:21;18.10;;;16.10;;
67227;SDS011;54139;42.616;23.748;2023-04-09T06:24:46;18.00;;;16.07;;
67227;SDS011;54139;42.616;23.748;2023-04-09T06:27:12;16.17;;;13.85;;
67227;SDS011;54139;42.616;23.748;2023-04-09T06:29:37;17.48;;;15.77;;
67227;SDS011;54139;42.616;23.748;2023-04-09T06:32:02;15.30;;;13.70;;
67227;SDS011;54139;42.616;23.748;2023-04-09T06:34:28;18.77;;;16.52;;
67227;SDS011;54139;42.616;23.748;2023-04-09T06:36:53;17.13;;;15.32;;
67227;SDS011;54139;42.616;23.748;2023-04-09T06:39:18;17.65;;;14.07;;
67227;SDS011;54139;42.616;23.748;2023-04-09T06:41:44;17.00;;;15.32;;
67227;SDS011;54139;42.616;23.748;2023-04-09T06:44:10;18.70;;;15.40;;
67227;SDS011;54139;42.616;23.748;2023-04-09T06:46:35;17.40;;;14.82;;
67227;SDS011;54139;42.616;23.748;2023-04-09T06:49:01;17.33;;;15.48;;
67227;SDS011;54139;42.616;23.748;2023-04-09T06:51:26;16.85;;;15.07;;
67227;SDS011;54139;42.616;23.748;2023-04-09T06:53:51;18.08;;;16.17;;
67227;SDS011;54139;42.616;23.748;2023-04-09T06:56:16;16.92;;;15.23;;
67227;SDS011;54139;42.616;23.748;2023-04-09T06:58:42;16.73;;;15.02;;
67227;SDS011;54139;42.616;23.748;2023-04-09T07:01:07;18.52;;;16.27;;
67227;SDS011;54139;42.616;23.748;2023-04-09T07:03:33;16.63;;;14.93;;
67227;SDS011;54139;42.616;23.748;2023-04-09T07:05:58;18.35;;;13.27;;
67227;SDS011;54139;42.616;23.748;2023-04-09T07:08:23;17.95;;;16.17;;
67227;SDS011;54139;42.616;23.748;2023-04-09T07:10:48;17.27;;;15.48;;
67227;SDS011;54139;42.616;23.748;2023-04-09T07:13:14;17.63;;;15.75;;
67227;SDS011;54139;42.616;23.748;2023-04-09T07:15:39;16.42;;;14.82;;
67227;SDS011;54139;42.616;23.748;2023-04-09T07:18:06;17.23;;;15.52;;
67227;SDS011;54139;42.616;23.748;2023-04-09T07:20:31;16.83;;;15.05;;
67227;SDS011;54139;42.616;23.748;2023-04-09T07:22:58;16.25;;;14.55;;
67227;SDS011;54139;42.616;23.748;2023-04-09T07:25:24;15.95;;;14.43;;
67227;SDS011;54139;42.616;23.748;2023-04-09T07:27:50;15.75;;;14.15;;
67227;SDS011;54139;42.616;23.748;2023-04-09T07:30:15;15.90;;;13.57;;
67227;SDS011;54139;42.616;23.748;2023-04-09T07:32:41;15.52;;;13.95;;
67227;SDS011;54139;42.616;23.748;2023-04-09T07:35:06;14.73;;;13.30;;
67227;SDS011;54139;42.616;23.748;2023-04-09T07:37:33;15.40;;;13.90;;
67227;SDS011;54139;42.616;23.748;2023-04-09T07:39:59;14.13;;;12.48;;
67227;SDS011;54139;42.616;23.748;2023-04-09T07:42:25;14.63;;;12.75;;
67227;SDS011;54139;42.616;23.748;2023-04-09T07:44:51;13.52;;;12.23;;
67227;SDS011;54139;42.616;23.748;2023-04-09T07:47:16;15.32;;;13.93;;
67227;SDS011;54139;42.616;23.748;2023-04-09T07:49:42;13.40;;;12.20;;
67227;SDS011;54139;42.616;23.748;2023-04-09T07:52:08;14.23;;;12.82;;
67227;SDS011;54139;42.616;23.748;2023-04-09T07:54:33;14.85;;;13.35;;
67227;SDS011;54139;42.616;23.748;2023-04-09T07:56:59;13.20;;;11.90;;
67227;SDS011;54139;42.616;23.748;2023-04-09T07:59:25;12.52;;;11.35;;
67227;SDS011;54139;42.616;23.748;2023-04-09T08:01:52;11.63;;;10.73;;
67227;SDS011;54139;42.616;23.748;2023-04-09T08:04:17;12.02;;;11.05;;
67227;SDS011;54139;42.616;23.748;2023-04-09T08:06:42;10.90;;;9.90;;
67227;SDS011;54139;42.616;23.748;2023-04-09T08:11:37;10.80;;;9.82;;
67227;SDS011;54139;42.616;23.748;2023-04-09T08:14:02;11.48;;;10.38;;
67227;SDS011;54139;42.616;23.748;2023-04-09T08:16:28;11.05;;;10.05;;
67227;SDS011;54139;42.616;23.748;2023-04-09T08:18:54;11.00;;;10.00;;
67227;SDS011;54139;42.616;23.748;2023-04-09T08:21:20;9.30;;;8.35;;
67227;SDS011;54139;42.616;23.748;2023-04-09T08:23:45;11.60;;;8.48;;
67227;SDS011;54139;42.616;23.748;2023-04-09T08:26:10;8.73;;;8.02;;
67227;SDS011;54139;42.616;23.748;2023-04-09T08:28:36;7.50;;;6.90;;
67227;SDS011;54139;42.616;23.748;2023-04-09T08:31:04;8.38;;;7.57;;
67227;SDS011;54139;42.616;23.748;2023-04-09T08:33:35;7.90;;;7.20;;
67227;SDS011;54139;42.616;23.748;2023-04-09T08:36:05;7.80;;;7.20;;
67227;SDS011;54139;42.616;23.748;2023-04-09T08:38:38;7.68;;;7.07;;
67227;SDS011;54139;42.616;23.748;2023-04-09T08:43:30;6.55;;;6.05;;
67227;SDS011;54139;42.616;23.748;2023-04-09T08:45:59;6.50;;;6.00;;
67227;SDS011;54139;42.616;23.748;2023-04-09T08:48:26;5.93;;;5.53;;
67227;SDS011;54139;42.616;23.748;2023-04-09T08:50:52;6.35;;;5.88;;
67227;SDS011;54139;42.616;23.748;2023-04-09T08:53:21;6.93;;;6.43;;
67227;SDS011;54139;42.616;23.748;2023-04-09T08:55:47;8.75;;;8.10;;
67227;SDS011;54139;42.616;23.748;2023-04-09T08:58:13;7.93;;;7.43;;
67227;SDS011;54139;42.616;23.748;2023-04-09T09:00:38;6.85;;;6.35;;
67227;SDS011;54139;42.616;23.748;2023-04-09T09:03:09;7.32;;;6.82;;
67227;SDS011;54139;42.616;23.748;2023-04-09T09:05:40;7.53;;;6.82;;
67227;SDS011;54139;42.616;23.748;2023-04-09T09:08:13;6.68;;;6.15;;
67227;SDS011;54139;42.616;23.748;2023-04-09T09:10:40;6.53;;;6.03;;
67227;SDS011;54139;42.616;23.748;2023-04-09T09:13:17;6.65;;;6.13;;
67227;SDS011;54139;42.616;23.748;2023-04-09T09:23:34;6.05;;;5.65;;
67227;SDS011;54139;42.616;23.748;2023-04-09T09:36:10;4.70;;;4.40;;
67227;SDS011;54139;42.616;23.748;2023-04-09T09:54:00;4.28;;;3.97;;
67227;SDS011;54139;42.616;23.748;2023-04-09T09:56:30;4.30;;;4.00;;
67227;SDS011;54139;42.616;23.748;2023-04-09T10:01:34;4.15;;;3.85;;
67227;SDS011;54139;42.616;23.748;2023-04-09T10:04:00;3.88;;;3.58;;
67227;SDS011;54139;42.616;23.748;2023-04-09T10:06:27;4.47;;;4.07;;
67227;SDS011;54139;42.616;23.748;2023-04-09T10:08:56;3.53;;;3.33;;
67227;SDS011;54139;42.616;23.748;2023-04-09T10:21:49;4.00;;;3.70;;
67227;SDS011;54139;42.616;23.748;2023-04-09T10:27:08;3.22;;;2.92;;
67227;SDS011;54139;42.616;23.748;2023-04-09T10:29:34;3.35;;;3.15;;
67227;SDS011;54139;42.616;23.748;2023-04-09T10:32:06;3.72;;;3.42;;
67227;SDS011;54139;42.616;23.748;2023-04-09T10:34:36;5.15;;;3.35;;
67227;SDS011;54139;42.616;23.748;2023-04-09T10:37:01;4.00;;;3.70;;
67227;SDS011;54139;42.616;23.748;2023-04-09T10:39:31;3.53;;;3.33;;
67227;SDS011;54139;42.616;23.748;2023-04-09T10:42:00;3.65;;;3.42;;
67227;SDS011;54139;42.616;23.748;2023-04-09T10:47:02;3.63;;;3.33;;
67227;SDS011;54139;42.616;23.748;2023-04-09T10:49:39;2.95;;;2.75;;
67227;SDS011;54139;42.616;23.748;2023-04-09T10:57:21;4.47;;;3.55;;
67227;SDS011;54139;42.616;23.748;2023-04-09T10:59:52;3.95;;;3.75;;
67227;SDS011;54139;42.616;23.748;2023-04-09T11:07:24;4.03;;;3.72;;
67227;SDS011;54139;42.616;23.748;2023-04-09T11:09:49;3.60;;;3.30;;
67227;SDS011;54139;42.616;23.748;2023-04-09T11:12:15;4.10;;;3.50;;
67227;SDS011;54139;42.616;23.748;2023-04-09T11:19:50;3.28;;;3.08;;
67227;SDS011;54139;42.616;23.748;2023-04-09T11:22:16;4.13;;;3.42;;
67227;SDS011;54139;42.616;23.748;2023-04-09T11:24:42;3.22;;;3.03;;
67227;SDS011;54139;42.616;23.748;2023-04-09T11:29:42;3.80;;;3.50;;
67227;SDS011;54139;42.616;23.748;2023-04-09T11:32:08;3.33;;;3.03;;
67227;SDS011;54139;42.616;23.748;2023-04-09T11:34:33;4.60;;;3.10;;
67227;SDS011;54139;42.616;23.748;2023-04-09T11:36:58;3.53;;;3.33;;
67227;SDS011;54139;42.616;23.748;2023-04-09T11:39:26;3.53;;;3.30;;
67227;SDS011;54139;42.616;23.748;2023-04-09T11:41:54;2.83;;;2.63;;
67227;SDS011;54139;42.616;23.748;2023-04-09T11:44:20;2.88;;;2.67;;
67227;SDS011;54139;42.616;23.748;2023-04-09T11:46:45;3.35;;;3.15;;
67227;SDS011;54139;42.616;23.748;2023-04-09T11:54:21;3.53;;;3.33;;
67227;SDS011;54139;42.616;23.748;2023-04-09T11:56:48;3.33;;;3.13;;
67227;SDS011;54139;42.616;23.748;2023-04-09T11:59:19;3.22;;;3.03;;
67227;SDS011;54139;42.616;23.748;2023-04-09T12:01:48;3.35;;;3.15;;
67227;SDS011;54139;42.616;23.748;2023-04-09T12:06:58;5.03;;;3.30;;
67227;SDS011;54139;42.616;23.748;2023-04-09T12:09:23;3.88;;;3.58;;
67227;SDS011;54139;42.616;23.748;2023-04-09T12:11:49;7.35;;;3.75;;
67227;SDS011;54139;42.616;23.748;2023-04-09T12:19:41;3.70;;;3.40;;
67227;SDS011;54139;42.616;23.748;2023-04-09T12:22:09;3.60;;;3.30;;
67227;SDS011;54139;42.616;23.748;2023-04-09T12:24:34;3.60;;;3.30;;
67227;SDS011;54139;42.616;23.748;2023-04-09T12:27:00;3.75;;;3.50;;
67227;SDS011;54139;42.616;23.748;2023-04-09T12:29:25;3.83;;;3.50;;
67227;SDS011;54139;42.616;23.748;2023-04-09T12:31:51;3.50;;;3.30;;
67227;SDS011;54139;42.616;23.748;2023-04-09T12:34:17;4.13;;;3.83;;
67227;SDS011;54139;42.616;23.748;2023-04-09T12:36:43;3.90;;;3.60;;
67227;SDS011;54139;42.616;23.748;2023-04-09T12:39:09;3.75;;;3.47;;
67227;SDS011;54139;42.616;23.748;2023-04-09T12:41:34;3.70;;;3.50;;
67227;SDS011;54139;42.616;23.748;2023-04-09T12:44:00;3.60;;;3.30;;
67227;SDS011;54139;42.616;23.748;2023-04-09T12:46:25;3.38;;;3.08;;
67227;SDS011;54139;42.616;23.748;2023-04-09T12:48:52;4.10;;;3.40;;
67227;SDS011;54139;42.616;23.748;2023-04-09T12:51:17;3.95;;;3.65;;
67227;SDS011;54139;42.616;23.748;2023-04-09T12:53:43;6.70;;;4.00;;
67227;SDS011;54139;42.616;23.748;2023-04-09T12:56:08;4.38;;;4.07;;
67227;SDS011;54139;42.616;23.748;2023-04-09T12:58:34;3.70;;;3.40;;
67227;SDS011;54139;42.616;23.748;2023-04-09T13:00:59;3.60;;;3.35;;
67227;SDS011;54139;42.616;23.748;2023-04-09T13:03:28;3.47;;;3.28;;
67227;SDS011;54139;42.616;23.748;2023-04-09T13:05:53;3.45;;;3.17;;
67227;SDS011;54139;42.616;23.748;2023-04-09T13:08:19;3.70;;;3.50;;
67227;SDS011;54139;42.616;23.748;2023-04-09T13:10:48;3.60;;;3.35;;
67227;SDS011;54139;42.616;23.748;2023-04-09T13:13:13;5.75;;;5.15;;
67227;SDS011;54139;42.616;23.748;2023-04-09T13:15:39;4.80;;;4.40;;
67227;SDS011;54139;42.616;23.748;2023-04-09T13:18:07;4.43;;;4.13;;
67227;SDS011;54139;42.616;23.748;2023-04-09T13:20:33;3.83;;;3.53;;
67227;SDS011;54139;42.616;23.748;2023-04-09T13:22:58;4.18;;;3.88;;
67227;SDS011;54139;42.616;23.748;2023-04-09T13:25:23;3.88;;;3.58;;
67227;SDS011;54139;42.616;23.748;2023-04-09T13:27:48;3.80;;;3.50;;
67227;SDS011;54139;42.616;23.748;2023-04-09T13:30:14;4.33;;;3.93;;
67227;SDS011;54139;42.616;23.748;2023-04-09T13:32:40;7.30;;;5.55;;
67227;SDS011;54139;42.616;23.748;2023-04-09T13:35:06;7.90;;;7.15;;
67227;SDS011;54139;42.616;23.748;2023-04-09T13:37:31;8.48;;;7.60;;
67227;SDS011;54139;42.616;23.748;2023-04-09T13:39:57;9.48;;;8.57;;
67227;SDS011;54139;42.616;23.748;2023-04-09T13:42:22;8.95;;;6.43;;
67227;SDS011;54139;42.616;23.748;2023-04-09T13:44:47;7.97;;;7.18;;
67227;SDS011;54139;42.616;23.748;2023-04-09T13:47:13;6.90;;;6.40;;
67227;SDS011;54139;42.616;23.748;2023-04-09T13:49:40;8.43;;;7.63;;
67227;SDS011;54139;42.616;23.748;2023-04-09T13:52:05;9.55;;;8.65;;
67227;SDS011;54139;42.616;23.748;2023-04-09T13:54:31;14.93;;;11.15;;
67227;SDS011;54139;42.616;23.748;2023-04-09T13:56:57;7.72;;;6.93;;
67227;SDS011;54139;42.616;23.748;2023-04-09T13:59:22;9.55;;;8.75;;
67227;SDS011;54139;42.616;23.748;2023-04-09T14:01:48;8.40;;;7.55;;
67227;SDS011;54139;42.616;23.748;2023-04-09T14:04:13;8.75;;;7.88;;
67227;SDS011;54139;42.616;23.748;2023-04-09T14:06:38;10.50;;;9.40;;
67227;SDS011;54139;42.616;23.748;2023-04-09T14:09:04;9.55;;;8.68;;
67227;SDS011;54139;42.616;23.748;2023-04-09T14:11:29;9.63;;;8.70;;
67227;SDS011;54139;42.616;23.748;2023-04-09T14:13:55;10.25;;;9.25;;
67227;SDS011;54139;42.616;23.748;2023-04-09T14:16:20;8.77;;;7.97;;
67227;SDS011;54139;42.616;23.748;2023-04-09T14:18:46;9.23;;;8.40;;
67227;SDS011;54139;42.616;23.748;2023-04-09T14:21:11;9.43;;;8.45;;
67227;SDS011;54139;42.616;23.748;2023-04-09T14:23:37;9.57;;;8.57;;
67227;SDS011;54139;42.616;23.748;2023-04-09T14:26:04;11.77;;;9.63;;
67227;SDS011;54139;42.616;23.748;2023-04-09T14:28:29;11.70;;;10.52;;
67227;SDS011;54139;42.616;23.748;2023-04-09T14:30:56;9.57;;;8.68;;
67227;SDS011;54139;42.616;23.748;2023-04-09T14:33:21;9.43;;;8.63;;
67227;SDS011;54139;42.616;23.748;2023-04-09T14:35:46;10.02;;;9.13;;
67227;SDS011;54139;42.616;23.748;2023-04-09T14:38:12;9.80;;;9.10;;
67227;SDS011;54139;42.616;23.748;2023-04-09T14:40:37;11.23;;;10.00;;
67227;SDS011;54139;42.616;23.748;2023-04-09T14:43:02;8.23;;;7.63;;
67227;SDS011;54139;42.616;23.748;2023-04-09T14:45:28;10.18;;;9.18;;
67227;SDS011;54139;42.616;23.748;2023-04-09T14:47:54;9.73;;;8.93;;
67227;SDS011;54139;42.616;23.748;2023-04-09T14:50:19;9.07;;;8.27;;
67227;SDS011;54139;42.616;23.748;2023-04-09T14:52:45;9.27;;;7.80;;
67227;SDS011;54139;42.616;23.748;2023-04-09T14:55:12;9.43;;;8.63;;
67227;SDS011;54139;42.616;23.748;2023-04-09T14:57:38;9.07;;;8.27;;
67227;SDS011;54139;42.616;23.748;2023-04-09T15:00:05;8.05;;;7.30;;
67227;SDS011;54139;42.616;23.748;2023-04-09T15:02:30;9.75;;;8.75;;
67227;SDS011;54139;42.616;23.748;2023-04-09T15:04:55;10.15;;;9.20;;
67227;SDS011;54139;42.616;23.748;2023-04-09T15:07:21;9.90;;;8.90;;
67227;SDS011;54139;42.616;23.748;2023-04-09T15:09:46;8.70;;;7.75;;
67227;SDS011;54139;42.616;23.748;2023-04-09T15:12:11;9.82;;;8.88;;
67227;SDS011;54139;42.616;23.748;2023-04-09T15:14:36;9.85;;;8.95;;
67227;SDS011;54139;42.616;23.748;2023-04-09T15:17:02;9.73;;;8.82;;
67227;SDS011;54139;42.616;23.748;2023-04-09T15:19:27;10.13;;;9.13;;
67227;SDS011;54139;42.616;23.748;2023-04-09T15:21:53;8.80;;;7.97;;
67227;SDS011;54139;42.616;23.748;2023-04-09T15:24:18;9.35;;;8.45;;
67227;SDS011;54139;42.616;23.748;2023-04-09T15:26:43;11.75;;;8.98;;
67227;SDS011;54139;42.616;23.748;2023-04-09T15:29:09;9.85;;;8.85;;
67227;SDS011;54139;42.616;23.748;2023-04-09T15:31:34;8.57;;;7.82;;
67227;SDS011;54139;42.616;23.748;2023-04-09T15:34:00;10.27;;;8.45;;
67227;SDS011;54139;42.616;23.748;2023-04-09T15:36:25;9.40;;;8.50;;
67227;SDS011;54139;42.616;23.748;2023-04-09T15:38:53;9.55;;;8.65;;
67227;SDS011;54139;42.616;23.748;2023-04-09T15:41:18;12.65;;;9.93;;
67227;SDS011;54139;42.616;23.748;2023-04-09T15:43:45;9.50;;;8.70;;
67227;SDS011;54139;42.616;23.748;2023-04-09T15:46:11;10.38;;;9.25;;
67227;SDS011;54139;42.616;23.748;2023-04-09T15:48:36;8.60;;;7.75;;
67227;SDS011;54139;42.616;23.748;2023-04-09T15:51:01;10.40;;;9.27;;
67227;SDS011;54139;42.616;23.748;2023-04-09T15:53:29;9.25;;;8.35;;
67227;SDS011;54139;42.616;23.748;2023-04-09T15:55:54;11.20;;;9.18;;
67227;SDS011;54139;42.616;23.748;2023-04-09T15:58:19;10.48;;;9.43;;